sensor_id;sensor_type;location;lat;lon;timestamp;P1;durP1;ratioP1;P2;durP2;ratioP2
2934;SDS011;2462;51.456;7.248;2023-04-25T00:01:10;3.70;;;2.23;;
2934;SDS011;2462;51.456;7.248;2023-04-25T00:03:37;3.77;;;2.73;;
2934;SDS011;2462;51.456;7.248;2023-04-25T00:06:03;2.97;;;2.67;;
2934;SDS011;2462;51.456;7.248;2023-04-25T00:08:29;3.03;;;2.73;;
2934;SDS011;2462;51.456;7.248;2023-04-25T00:10:56;4.47;;;2.60;;
2934;SDS011;2462;51.456;7.248;2023-04-25T00:13:22;3.80;;;2.00;;
2934;SDS011;2462;51.456;7.248;2023-04-25T00:15:47;3.60;;;2.50;;
2934;SDS011;2462;51.456;7.248;2023-04-25T00:18:13;3.20;;;2.67;;
2934;SDS011;2462;51.456;7.248;2023-04-25T00:20:39;3.83;;;3.10;;
2934;SDS011;2462;51.456;7.248;2023-04-25T00:23:05;2.27;;;1.97;;
2934;SDS011;2462;51.456;7.248;2023-04-25T00:25:31;4.73;;;3.20;;
2934;SDS011;2462;51.456;7.248;2023-04-25T00:27:56;4.90;;;2.17;;
2934;SDS011;2462;51.456;7.248;2023-04-25T00:30:22;4.33;;;2.80;;
2934;SDS011;2462;51.456;7.248;2023-04-25T00:32:47;2.73;;;2.50;;
2934;SDS011;2462;51.456;7.248;2023-04-25T00:35:13;3.37;;;2.70;;
2934;SDS011;2462;51.456;7.248;2023-04-25T00:37:39;3.97;;;2.53;;
2934;SDS011;2462;51.456;7.248;2023-04-25T00:40:05;2.90;;;2.30;;
2934;SDS011;2462;51.456;7.248;2023-04-25T00:42:31;3.30;;;2.37;;
2934;SDS011;2462;51.456;7.248;2023-04-25T00:44:58;3.00;;;2.70;;
2934;SDS011;2462;51.456;7.248;2023-04-25T00:47:24;2.70;;;2.50;;
2934;SDS011;2462;51.456;7.248;2023-04-25T00:49:50;4.23;;;2.60;;
2934;SDS011;2462;51.456;7.248;2023-04-25T00:52:16;3.00;;;2.60;;
2934;SDS011;2462;51.456;7.248;2023-04-25T00:54:41;3.03;;;2.00;;
2934;SDS011;2462;51.456;7.248;2023-04-25T00:57:07;3.17;;;2.70;;
2934;SDS011;2462;51.456;7.248;2023-04-25T00:59:33;3.50;;;2.60;;
2934;SDS011;2462;51.456;7.248;2023-04-25T01:01:59;3.53;;;2.63;;
2934;SDS011;2462;51.456;7.248;2023-04-25T01:04:25;3.50;;;2.60;;
2934;SDS011;2462;51.456;7.248;2023-04-25T01:06:52;3.40;;;2.50;;
2934;SDS011;2462;51.456;7.248;2023-04-25T01:09:18;3.73;;;2.60;;
2934;SDS011;2462;51.456;7.248;2023-04-25T01:11:45;2.93;;;2.37;;
2934;SDS011;2462;51.456;7.248;2023-04-25T01:14:11;2.87;;;2.27;;
2934;SDS011;2462;51.456;7.248;2023-04-25T01:16:36;3.60;;;3.00;;
2934;SDS011;2462;51.456;7.248;2023-04-25T01:19:04;4.33;;;2.63;;
2934;SDS011;2462;51.456;7.248;2023-04-25T01:21:36;2.80;;;2.30;;
2934;SDS011;2462;51.456;7.248;2023-04-25T01:24:01;4.10;;;2.97;;
2934;SDS011;2462;51.456;7.248;2023-04-25T01:26:27;2.50;;;2.30;;
2934;SDS011;2462;51.456;7.248;2023-04-25T01:31:23;3.50;;;3.00;;
2934;SDS011;2462;51.456;7.248;2023-04-25T01:33:50;3.00;;;2.73;;
2934;SDS011;2462;51.456;7.248;2023-04-25T01:36:15;3.70;;;2.87;;
2934;SDS011;2462;51.456;7.248;2023-04-25T01:38:41;3.00;;;2.70;;
2934;SDS011;2462;51.456;7.248;2023-04-25T01:41:07;3.47;;;2.70;;
2934;SDS011;2462;51.456;7.248;2023-04-25T01:43:32;3.00;;;2.70;;
2934;SDS011;2462;51.456;7.248;2023-04-25T01:45:58;4.73;;;2.60;;
2934;SDS011;2462;51.456;7.248;2023-04-25T01:48:24;3.43;;;3.13;;
2934;SDS011;2462;51.456;7.248;2023-04-25T01:50:50;3.27;;;2.80;;
2934;SDS011;2462;51.456;7.248;2023-04-25T01:53:15;5.60;;;2.80;;
2934;SDS011;2462;51.456;7.248;2023-04-25T01:55:41;4.50;;;3.00;;
2934;SDS011;2462;51.456;7.248;2023-04-25T01:58:06;3.60;;;3.30;;
2934;SDS011;2462;51.456;7.248;2023-04-25T02:00:34;4.10;;;2.70;;
2934;SDS011;2462;51.456;7.248;2023-04-25T02:03:02;4.00;;;2.97;;
2934;SDS011;2462;51.456;7.248;2023-04-25T02:05:28;3.30;;;2.57;;
2934;SDS011;2462;51.456;7.248;2023-04-25T02:07:58;3.30;;;3.00;;
2934;SDS011;2462;51.456;7.248;2023-04-25T02:10:24;4.33;;;3.03;;
2934;SDS011;2462;51.456;7.248;2023-04-25T02:12:49;6.30;;;2.93;;
2934;SDS011;2462;51.456;7.248;2023-04-25T02:15:15;2.60;;;2.40;;
2934;SDS011;2462;51.456;7.248;2023-04-25T02:17:40;4.70;;;3.70;;
2934;SDS011;2462;51.456;7.248;2023-04-25T02:20:06;4.77;;;3.30;;
2934;SDS011;2462;51.456;7.248;2023-04-25T02:22:32;3.77;;;3.40;;
2934;SDS011;2462;51.456;7.248;2023-04-25T02:24:58;3.10;;;2.80;;
2934;SDS011;2462;51.456;7.248;2023-04-25T02:27:24;2.97;;;2.67;;
2934;SDS011;2462;51.456;7.248;2023-04-25T02:29:49;4.70;;;3.53;;
2934;SDS011;2462;51.456;7.248;2023-04-25T02:32:15;4.60;;;2.83;;
2934;SDS011;2462;51.456;7.248;2023-04-25T02:34:41;4.37;;;2.87;;
2934;SDS011;2462;51.456;7.248;2023-04-25T02:37:06;4.20;;;3.37;;
2934;SDS011;2462;51.456;7.248;2023-04-25T02:39:32;4.90;;;3.53;;
2934;SDS011;2462;51.456;7.248;2023-04-25T02:41:57;4.17;;;2.90;;
2934;SDS011;2462;51.456;7.248;2023-04-25T02:44:23;3.17;;;2.90;;
2934;SDS011;2462;51.456;7.248;2023-04-25T02:46:48;4.17;;;3.13;;
2934;SDS011;2462;51.456;7.248;2023-04-25T02:49:14;3.97;;;3.30;;
2934;SDS011;2462;51.456;7.248;2023-04-25T02:51:39;5.20;;;3.97;;
2934;SDS011;2462;51.456;7.248;2023-04-25T02:54:05;3.10;;;2.80;;
2934;SDS011;2462;51.456;7.248;2023-04-25T02:56:31;4.30;;;3.60;;
2934;SDS011;2462;51.456;7.248;2023-04-25T02:58:57;4.10;;;3.70;;
2934;SDS011;2462;51.456;7.248;2023-04-25T03:01:23;5.70;;;3.80;;
2934;SDS011;2462;51.456;7.248;2023-04-25T03:03:48;3.37;;;2.87;;
2934;SDS011;2462;51.456;7.248;2023-04-25T03:06:14;4.57;;;3.50;;
2934;SDS011;2462;51.456;7.248;2023-04-25T03:08:40;3.20;;;2.90;;
2934;SDS011;2462;51.456;7.248;2023-04-25T03:11:06;4.37;;;3.43;;
2934;SDS011;2462;51.456;7.248;2023-04-25T03:13:31;4.80;;;3.83;;
2934;SDS011;2462;51.456;7.248;2023-04-25T03:15:57;3.53;;;2.67;;
2934;SDS011;2462;51.456;7.248;2023-04-25T03:18:22;5.67;;;3.50;;
2934;SDS011;2462;51.456;7.248;2023-04-25T03:20:48;4.33;;;3.13;;
2934;SDS011;2462;51.456;7.248;2023-04-25T03:23:14;4.53;;;3.47;;
2934;SDS011;2462;51.456;7.248;2023-04-25T03:25:39;3.90;;;3.03;;
2934;SDS011;2462;51.456;7.248;2023-04-25T03:28:05;4.43;;;3.03;;
2934;SDS011;2462;51.456;7.248;2023-04-25T03:30:31;3.70;;;3.40;;
2934;SDS011;2462;51.456;7.248;2023-04-25T03:32:56;4.17;;;3.10;;
2934;SDS011;2462;51.456;7.248;2023-04-25T03:35:22;3.30;;;2.87;;
2934;SDS011;2462;51.456;7.248;2023-04-25T03:37:48;3.20;;;2.90;;
2934;SDS011;2462;51.456;7.248;2023-04-25T03:40:14;5.83;;;4.17;;
2934;SDS011;2462;51.456;7.248;2023-04-25T03:42:39;7.20;;;3.40;;
2934;SDS011;2462;51.456;7.248;2023-04-25T03:45:05;6.37;;;3.23;;
2934;SDS011;2462;51.456;7.248;2023-04-25T03:47:31;3.90;;;3.50;;
2934;SDS011;2462;51.456;7.248;2023-04-25T03:49:57;3.73;;;3.07;;
2934;SDS011;2462;51.456;7.248;2023-04-25T03:52:22;4.40;;;3.50;;
2934;SDS011;2462;51.456;7.248;2023-04-25T03:54:48;6.00;;;3.27;;
2934;SDS011;2462;51.456;7.248;2023-04-25T03:57:13;5.40;;;3.60;;
2934;SDS011;2462;51.456;7.248;2023-04-25T03:59:39;3.93;;;3.23;;
2934;SDS011;2462;51.456;7.248;2023-04-25T04:02:04;4.13;;;3.63;;
2934;SDS011;2462;51.456;7.248;2023-04-25T04:04:30;3.97;;;3.30;;
2934;SDS011;2462;51.456;7.248;2023-04-25T04:06:56;4.63;;;3.53;;
2934;SDS011;2462;51.456;7.248;2023-04-25T04:09:21;3.50;;;3.17;;
2934;SDS011;2462;51.456;7.248;2023-04-25T04:11:47;4.90;;;3.43;;
2934;SDS011;2462;51.456;7.248;2023-04-25T04:14:12;3.33;;;2.70;;
2934;SDS011;2462;51.456;7.248;2023-04-25T04:16:38;4.23;;;3.83;;
2934;SDS011;2462;51.456;7.248;2023-04-25T04:19:03;4.47;;;3.43;;
2934;SDS011;2462;51.456;7.248;2023-04-25T04:21:29;5.13;;;3.90;;
2934;SDS011;2462;51.456;7.248;2023-04-25T04:23:55;5.23;;;3.50;;
2934;SDS011;2462;51.456;7.248;2023-04-25T04:26:22;3.90;;;3.47;;
2934;SDS011;2462;51.456;7.248;2023-04-25T04:28:48;4.33;;;3.40;;
2934;SDS011;2462;51.456;7.248;2023-04-25T04:31:19;3.53;;;3.20;;
2934;SDS011;2462;51.456;7.248;2023-04-25T04:33:46;5.57;;;3.67;;
2934;SDS011;2462;51.456;7.248;2023-04-25T04:36:12;3.80;;;2.70;;
2934;SDS011;2462;51.456;7.248;2023-04-25T04:38:37;4.77;;;3.43;;
2934;SDS011;2462;51.456;7.248;2023-04-25T04:41:03;3.43;;;3.10;;
2934;SDS011;2462;51.456;7.248;2023-04-25T04:43:29;4.70;;;2.93;;
2934;SDS011;2462;51.456;7.248;2023-04-25T04:45:55;6.00;;;3.47;;
2934;SDS011;2462;51.456;7.248;2023-04-25T04:48:23;5.03;;;3.10;;
2934;SDS011;2462;51.456;7.248;2023-04-25T04:50:49;3.80;;;3.30;;
2934;SDS011;2462;51.456;7.248;2023-04-25T04:53:15;4.47;;;3.30;;
2934;SDS011;2462;51.456;7.248;2023-04-25T04:55:40;6.30;;;3.47;;
2934;SDS011;2462;51.456;7.248;2023-04-25T04:58:06;3.33;;;3.03;;
2934;SDS011;2462;51.456;7.248;2023-04-25T05:00:32;5.33;;;3.40;;
2934;SDS011;2462;51.456;7.248;2023-04-25T05:02:58;3.47;;;2.97;;
2934;SDS011;2462;51.456;7.248;2023-04-25T05:05:23;3.40;;;3.10;;
2934;SDS011;2462;51.456;7.248;2023-04-25T05:07:49;6.70;;;3.70;;
2934;SDS011;2462;51.456;7.248;2023-04-25T05:10:16;3.03;;;2.73;;
2934;SDS011;2462;51.456;7.248;2023-04-25T05:12:42;6.17;;;3.23;;
2934;SDS011;2462;51.456;7.248;2023-04-25T05:15:08;3.50;;;2.87;;
2934;SDS011;2462;51.456;7.248;2023-04-25T05:17:33;4.90;;;3.40;;
2934;SDS011;2462;51.456;7.248;2023-04-25T05:19:59;2.77;;;2.57;;
2934;SDS011;2462;51.456;7.248;2023-04-25T05:22:25;5.83;;;2.57;;
2934;SDS011;2462;51.456;7.248;2023-04-25T05:24:50;5.57;;;3.20;;
2934;SDS011;2462;51.456;7.248;2023-04-25T05:27:16;3.90;;;3.00;;
2934;SDS011;2462;51.456;7.248;2023-04-25T05:29:43;3.43;;;3.10;;
2934;SDS011;2462;51.456;7.248;2023-04-25T05:32:08;4.70;;;3.30;;
2934;SDS011;2462;51.456;7.248;2023-04-25T05:34:34;4.93;;;3.50;;
2934;SDS011;2462;51.456;7.248;2023-04-25T05:37:00;2.70;;;2.23;;
2934;SDS011;2462;51.456;7.248;2023-04-25T05:39:25;5.50;;;3.53;;
2934;SDS011;2462;51.456;7.248;2023-04-25T05:41:51;4.13;;;3.07;;
2934;SDS011;2462;51.456;7.248;2023-04-25T05:44:17;3.30;;;3.00;;
2934;SDS011;2462;51.456;7.248;2023-04-25T05:46:43;3.40;;;3.10;;
2934;SDS011;2462;51.456;7.248;2023-04-25T05:49:08;4.87;;;3.40;;
2934;SDS011;2462;51.456;7.248;2023-04-25T05:51:34;3.93;;;3.50;;
2934;SDS011;2462;51.456;7.248;2023-04-25T05:53:59;3.77;;;3.17;;
2934;SDS011;2462;51.456;7.248;2023-04-25T05:56:25;3.80;;;3.10;;
2934;SDS011;2462;51.456;7.248;2023-04-25T05:58:51;5.33;;;3.23;;
2934;SDS011;2462;51.456;7.248;2023-04-25T06:01:16;5.10;;;3.20;;
2934;SDS011;2462;51.456;7.248;2023-04-25T06:03:42;3.53;;;2.90;;
2934;SDS011;2462;51.456;7.248;2023-04-25T06:06:08;4.00;;;3.30;;
2934;SDS011;2462;51.456;7.248;2023-04-25T06:08:34;4.83;;;3.10;;
2934;SDS011;2462;51.456;7.248;2023-04-25T06:10:59;3.30;;;2.83;;
2934;SDS011;2462;51.456;7.248;2023-04-25T06:13:25;4.87;;;3.00;;
2934;SDS011;2462;51.456;7.248;2023-04-25T06:15:52;3.03;;;2.83;;
2934;SDS011;2462;51.456;7.248;2023-04-25T06:18:18;4.40;;;3.53;;
2934;SDS011;2462;51.456;7.248;2023-04-25T06:20:43;5.00;;;3.10;;
2934;SDS011;2462;51.456;7.248;2023-04-25T06:23:09;3.30;;;3.00;;
2934;SDS011;2462;51.456;7.248;2023-04-25T06:25:34;5.20;;;3.20;;
2934;SDS011;2462;51.456;7.248;2023-04-25T06:27:59;3.50;;;2.70;;
2934;SDS011;2462;51.456;7.248;2023-04-25T06:30:25;5.13;;;3.60;;
2934;SDS011;2462;51.456;7.248;2023-04-25T06:32:54;2.50;;;2.30;;
2934;SDS011;2462;51.456;7.248;2023-04-25T06:35:19;4.33;;;3.07;;
2934;SDS011;2462;51.456;7.248;2023-04-25T06:37:45;4.00;;;2.97;;
2934;SDS011;2462;51.456;7.248;2023-04-25T06:40:10;3.87;;;3.13;;
2934;SDS011;2462;51.456;7.248;2023-04-25T06:42:36;5.60;;;3.37;;
2934;SDS011;2462;51.456;7.248;2023-04-25T06:45:02;3.93;;;3.00;;
2934;SDS011;2462;51.456;7.248;2023-04-25T06:47:28;4.63;;;3.53;;
2934;SDS011;2462;51.456;7.248;2023-04-25T06:49:54;3.87;;;3.13;;
2934;SDS011;2462;51.456;7.248;2023-04-25T06:52:20;5.17;;;2.80;;
2934;SDS011;2462;51.456;7.248;2023-04-25T06:54:46;4.97;;;3.10;;
2934;SDS011;2462;51.456;7.248;2023-04-25T06:57:11;3.70;;;2.80;;
2934;SDS011;2462;51.456;7.248;2023-04-25T06:59:37;5.50;;;3.00;;
2934;SDS011;2462;51.456;7.248;2023-04-25T07:02:03;3.47;;;2.77;;
2934;SDS011;2462;51.456;7.248;2023-04-25T07:04:28;5.07;;;3.73;;
2934;SDS011;2462;51.456;7.248;2023-04-25T07:06:55;5.93;;;3.20;;
2934;SDS011;2462;51.456;7.248;2023-04-25T07:09:21;5.73;;;2.50;;
2934;SDS011;2462;51.456;7.248;2023-04-25T07:11:46;5.70;;;3.40;;
2934;SDS011;2462;51.456;7.248;2023-04-25T07:14:12;5.83;;;3.40;;
2934;SDS011;2462;51.456;7.248;2023-04-25T07:16:38;6.17;;;4.30;;
2934;SDS011;2462;51.456;7.248;2023-04-25T07:19:03;6.60;;;3.37;;
2934;SDS011;2462;51.456;7.248;2023-04-25T07:21:29;6.27;;;3.70;;
2934;SDS011;2462;51.456;7.248;2023-04-25T07:23:56;6.53;;;3.70;;
2934;SDS011;2462;51.456;7.248;2023-04-25T07:26:22;6.60;;;4.23;;
2934;SDS011;2462;51.456;7.248;2023-04-25T07:28:47;4.50;;;3.47;;
2934;SDS011;2462;51.456;7.248;2023-04-25T07:31:15;4.93;;;3.70;;
2934;SDS011;2462;51.456;7.248;2023-04-25T07:33:43;6.83;;;3.50;;
2934;SDS011;2462;51.456;7.248;2023-04-25T07:36:11;6.47;;;3.27;;
2934;SDS011;2462;51.456;7.248;2023-04-25T07:38:37;7.07;;;3.83;;
2934;SDS011;2462;51.456;7.248;2023-04-25T07:41:03;6.97;;;3.77;;
2934;SDS011;2462;51.456;7.248;2023-04-25T07:43:29;5.97;;;3.60;;
2934;SDS011;2462;51.456;7.248;2023-04-25T07:45:55;4.73;;;3.67;;
2934;SDS011;2462;51.456;7.248;2023-04-25T07:48:21;4.50;;;3.07;;
2934;SDS011;2462;51.456;7.248;2023-04-25T07:50:58;4.83;;;3.77;;
2934;SDS011;2462;51.456;7.248;2023-04-25T07:53:23;4.80;;;3.47;;
2934;SDS011;2462;51.456;7.248;2023-04-25T07:55:49;5.47;;;3.57;;
2934;SDS011;2462;51.456;7.248;2023-04-25T07:58:15;4.83;;;3.63;;
2934;SDS011;2462;51.456;7.248;2023-04-25T08:00:46;7.70;;;3.90;;
2934;SDS011;2462;51.456;7.248;2023-04-25T08:03:11;6.07;;;3.50;;
2934;SDS011;2462;51.456;7.248;2023-04-25T08:05:37;7.10;;;3.60;;
2934;SDS011;2462;51.456;7.248;2023-04-25T08:08:02;5.93;;;3.17;;
2934;SDS011;2462;51.456;7.248;2023-04-25T08:10:29;6.20;;;3.30;;
2934;SDS011;2462;51.456;7.248;2023-04-25T08:12:55;14.20;;;3.40;;
2934;SDS011;2462;51.456;7.248;2023-04-25T08:15:20;6.43;;;3.50;;
2934;SDS011;2462;51.456;7.248;2023-04-25T08:17:46;4.53;;;2.93;;
2934;SDS011;2462;51.456;7.248;2023-04-25T08:20:11;8.80;;;3.70;;
2934;SDS011;2462;51.456;7.248;2023-04-25T08:22:37;7.10;;;3.10;;
2934;SDS011;2462;51.456;7.248;2023-04-25T08:25:02;3.73;;;3.07;;
2934;SDS011;2462;51.456;7.248;2023-04-25T08:27:28;4.10;;;3.13;;
2934;SDS011;2462;51.456;7.248;2023-04-25T08:29:54;3.10;;;2.73;;
2934;SDS011;2462;51.456;7.248;2023-04-25T08:32:20;8.00;;;3.50;;
2934;SDS011;2462;51.456;7.248;2023-04-25T08:34:46;3.50;;;3.07;;
2934;SDS011;2462;51.456;7.248;2023-04-25T08:37:12;6.67;;;2.87;;
2934;SDS011;2462;51.456;7.248;2023-04-25T08:39:38;4.97;;;2.37;;
2934;SDS011;2462;51.456;7.248;2023-04-25T08:42:04;3.90;;;2.63;;
2934;SDS011;2462;51.456;7.248;2023-04-25T08:44:34;3.97;;;2.90;;
2934;SDS011;2462;51.456;7.248;2023-04-25T08:47:03;3.20;;;2.57;;
2934;SDS011;2462;51.456;7.248;2023-04-25T08:49:33;3.90;;;2.67;;
2934;SDS011;2462;51.456;7.248;2023-04-25T08:52:00;4.17;;;2.87;;
2934;SDS011;2462;51.456;7.248;2023-04-25T08:54:27;3.37;;;2.53;;
2934;SDS011;2462;51.456;7.248;2023-04-25T08:56:55;5.67;;;2.57;;
2934;SDS011;2462;51.456;7.248;2023-04-25T08:59:23;6.95;;;3.00;;
2934;SDS011;2462;51.456;7.248;2023-04-25T09:01:49;3.77;;;2.50;;
2934;SDS011;2462;51.456;7.248;2023-04-25T09:04:16;3.27;;;2.30;;
2934;SDS011;2462;51.456;7.248;2023-04-25T09:06:44;6.47;;;2.97;;
2934;SDS011;2462;51.456;7.248;2023-04-25T09:09:10;7.17;;;2.90;;
2934;SDS011;2462;51.456;7.248;2023-04-25T09:11:37;4.30;;;2.20;;
2934;SDS011;2462;51.456;7.248;2023-04-25T09:14:22;4.60;;;2.60;;
2934;SDS011;2462;51.456;7.248;2023-04-25T09:19:22;3.80;;;1.63;;
2934;SDS011;2462;51.456;7.248;2023-04-25T09:21:51;3.77;;;2.83;;
2934;SDS011;2462;51.456;7.248;2023-04-25T09:24:39;3.33;;;2.30;;
2934;SDS011;2462;51.456;7.248;2023-04-25T09:27:10;4.23;;;2.50;;
2934;SDS011;2462;51.456;7.248;2023-04-25T09:29:39;4.50;;;2.90;;
2934;SDS011;2462;51.456;7.248;2023-04-25T09:37:18;4.30;;;2.40;;
2934;SDS011;2462;51.456;7.248;2023-04-25T09:39:48;3.07;;;2.60;;
2934;SDS011;2462;51.456;7.248;2023-04-25T09:42:27;6.33;;;2.80;;
2934;SDS011;2462;51.456;7.248;2023-04-25T09:44:54;4.57;;;2.20;;
2934;SDS011;2462;51.456;7.248;2023-04-25T09:47:22;5.47;;;3.03;;
2934;SDS011;2462;51.456;7.248;2023-04-25T09:49:49;3.63;;;2.40;;
2934;SDS011;2462;51.456;7.248;2023-04-25T09:52:16;4.23;;;2.53;;
2934;SDS011;2462;51.456;7.248;2023-04-25T09:54:44;5.77;;;2.27;;
2934;SDS011;2462;51.456;7.248;2023-04-25T09:57:17;5.83;;;2.70;;
2934;SDS011;2462;51.456;7.248;2023-04-25T09:59:47;6.43;;;3.00;;
2934;SDS011;2462;51.456;7.248;2023-04-25T10:02:24;3.93;;;2.67;;
2934;SDS011;2462;51.456;7.248;2023-04-25T10:04:52;5.67;;;2.70;;
2934;SDS011;2462;51.456;7.248;2023-04-25T10:07:23;5.50;;;2.73;;
2934;SDS011;2462;51.456;7.248;2023-04-25T10:09:54;5.77;;;2.67;;
2934;SDS011;2462;51.456;7.248;2023-04-25T10:12:28;3.93;;;2.40;;
2934;SDS011;2462;51.456;7.248;2023-04-25T10:14:58;5.83;;;2.57;;
2934;SDS011;2462;51.456;7.248;2023-04-25T10:17:24;5.83;;;2.67;;
2934;SDS011;2462;51.456;7.248;2023-04-25T10:19:52;3.83;;;2.40;;
2934;SDS011;2462;51.456;7.248;2023-04-25T10:22:36;3.70;;;2.47;;
2934;SDS011;2462;51.456;7.248;2023-04-25T10:25:03;3.73;;;2.30;;
2934;SDS011;2462;51.456;7.248;2023-04-25T10:27:30;3.47;;;2.33;;
2934;SDS011;2462;51.456;7.248;2023-04-25T10:30:03;4.13;;;2.30;;
2934;SDS011;2462;51.456;7.248;2023-04-25T10:32:36;3.43;;;2.57;;
2934;SDS011;2462;51.456;7.248;2023-04-25T10:35:15;3.03;;;1.90;;
2934;SDS011;2462;51.456;7.248;2023-04-25T10:40:24;5.93;;;2.97;;
2934;SDS011;2462;51.456;7.248;2023-04-25T10:42:53;3.20;;;2.20;;
2934;SDS011;2462;51.456;7.248;2023-04-25T10:45:22;2.43;;;2.23;;
2934;SDS011;2462;51.456;7.248;2023-04-25T10:47:48;3.43;;;2.07;;
2934;SDS011;2462;51.456;7.248;2023-04-25T10:50:14;2.03;;;1.60;;
2934;SDS011;2462;51.456;7.248;2023-04-25T10:52:43;3.10;;;2.17;;
2934;SDS011;2462;51.456;7.248;2023-04-25T10:55:09;3.20;;;2.33;;
2934;SDS011;2462;51.456;7.248;2023-04-25T11:00:10;3.77;;;2.53;;
2934;SDS011;2462;51.456;7.248;2023-04-25T11:02:44;3.60;;;2.30;;
2934;SDS011;2462;51.456;7.248;2023-04-25T11:08:06;5.57;;;2.83;;
2934;SDS011;2462;51.456;7.248;2023-04-25T11:10:36;4.93;;;2.00;;
2934;SDS011;2462;51.456;7.248;2023-04-25T11:13:02;4.43;;;2.13;;
2934;SDS011;2462;51.456;7.248;2023-04-25T11:15:28;5.83;;;1.97;;
2934;SDS011;2462;51.456;7.248;2023-04-25T11:17:54;6.63;;;1.90;;
2934;SDS011;2462;51.456;7.248;2023-04-25T11:20:20;11.43;;;2.03;;
2934;SDS011;2462;51.456;7.248;2023-04-25T11:22:47;8.60;;;1.90;;
2934;SDS011;2462;51.456;7.248;2023-04-25T11:25:14;4.30;;;1.97;;
2934;SDS011;2462;51.456;7.248;2023-04-25T11:30:16;5.53;;;2.33;;
2934;SDS011;2462;51.456;7.248;2023-04-25T11:32:42;6.87;;;2.70;;
2934;SDS011;2462;51.456;7.248;2023-04-25T11:35:08;10.33;;;2.23;;
2934;SDS011;2462;51.456;7.248;2023-04-25T11:37:34;9.20;;;1.87;;
2934;SDS011;2462;51.456;7.248;2023-04-25T11:40:00;17.77;;;2.50;;
2934;SDS011;2462;51.456;7.248;2023-04-25T11:42:26;16.83;;;3.00;;
2934;SDS011;2462;51.456;7.248;2023-04-25T11:44:51;13.87;;;2.50;;
2934;SDS011;2462;51.456;7.248;2023-04-25T11:47:17;21.70;;;3.50;;
2934;SDS011;2462;51.456;7.248;2023-04-25T11:49:42;23.10;;;3.00;;
2934;SDS011;2462;51.456;7.248;2023-04-25T11:52:08;13.27;;;2.60;;
2934;SDS011;2462;51.456;7.248;2023-04-25T11:54:37;23.83;;;3.33;;
2934;SDS011;2462;51.456;7.248;2023-04-25T11:57:02;19.30;;;3.05;;
2934;SDS011;2462;51.456;7.248;2023-04-25T11:59:29;15.23;;;2.97;;
2934;SDS011;2462;51.456;7.248;2023-04-25T12:01:55;19.70;;;2.60;;
2934;SDS011;2462;51.456;7.248;2023-04-25T12:04:22;14.33;;;2.90;;
2934;SDS011;2462;51.456;7.248;2023-04-25T12:06:50;12.23;;;2.90;;
2934;SDS011;2462;51.456;7.248;2023-04-25T12:09:20;36.87;;;4.60;;
2934;SDS011;2462;51.456;7.248;2023-04-25T12:11:53;13.70;;;2.10;;
2934;SDS011;2462;51.456;7.248;2023-04-25T12:14:24;17.63;;;3.63;;
2934;SDS011;2462;51.456;7.248;2023-04-25T12:16:55;53.60;;;5.40;;
2934;SDS011;2462;51.456;7.248;2023-04-25T12:19:23;271.90;;;19.30;;
2934;SDS011;2462;51.456;7.248;2023-04-25T12:21:49;67.77;;;7.73;;
2934;SDS011;2462;51.456;7.248;2023-04-25T12:24:16;880.77;;;81.83;;
2934;SDS011;2462;51.456;7.248;2023-04-25T12:26:50;571.57;;;49.00;;
2934;SDS011;2462;51.456;7.248;2023-04-25T12:29:30;387.47;;;29.47;;
2934;SDS011;2462;51.456;7.248;2023-04-25T12:31:57;353.43;;;28.10;;
2934;SDS011;2462;51.456;7.248;2023-04-25T12:34:23;259.63;;;22.67;;
2934;SDS011;2462;51.456;7.248;2023-04-25T12:36:50;278.20;;;28.30;;
2934;SDS011;2462;51.456;7.248;2023-04-25T12:39:16;231.30;;;18.63;;
2934;SDS011;2462;51.456;7.248;2023-04-25T12:41:52;190.90;;;19.60;;
2934;SDS011;2462;51.456;7.248;2023-04-25T12:44:21;212.83;;;20.43;;
2934;SDS011;2462;51.456;7.248;2023-04-25T12:46:47;185.40;;;16.50;;
2934;SDS011;2462;51.456;7.248;2023-04-25T12:49:13;186.03;;;16.43;;
2934;SDS011;2462;51.456;7.248;2023-04-25T12:51:39;169.27;;;16.50;;
2934;SDS011;2462;51.456;7.248;2023-04-25T12:54:06;187.00;;;16.70;;
2934;SDS011;2462;51.456;7.248;2023-04-25T12:56:33;168.00;;;16.10;;
2934;SDS011;2462;51.456;7.248;2023-04-25T12:58:59;109.73;;;12.47;;
2934;SDS011;2462;51.456;7.248;2023-04-25T13:01:25;144.70;;;15.83;;
2934;SDS011;2462;51.456;7.248;2023-04-25T13:03:51;150.23;;;17.10;;
2934;SDS011;2462;51.456;7.248;2023-04-25T13:06:17;106.17;;;14.20;;
2934;SDS011;2462;51.456;7.248;2023-04-25T13:08:44;112.20;;;11.80;;
2934;SDS011;2462;51.456;7.248;2023-04-25T13:11:09;107.13;;;12.13;;
2934;SDS011;2462;51.456;7.248;2023-04-25T13:13:36;91.50;;;11.47;;
2934;SDS011;2462;51.456;7.248;2023-04-25T13:16:02;81.53;;;10.00;;
2934;SDS011;2462;51.456;7.248;2023-04-25T13:18:29;114.97;;;12.10;;
2934;SDS011;2462;51.456;7.248;2023-04-25T13:20:55;110.20;;;10.00;;
2934;SDS011;2462;51.456;7.248;2023-04-25T13:23:22;67.87;;;9.30;;
2934;SDS011;2462;51.456;7.248;2023-04-25T13:25:48;89.93;;;10.63;;
2934;SDS011;2462;51.456;7.248;2023-04-25T13:28:14;82.90;;;8.93;;
2934;SDS011;2462;51.456;7.248;2023-04-25T13:30:40;70.30;;;8.90;;
2934;SDS011;2462;51.456;7.248;2023-04-25T13:33:05;76.70;;;8.40;;
2934;SDS011;2462;51.456;7.248;2023-04-25T13:35:31;52.93;;;8.33;;
2934;SDS011;2462;51.456;7.248;2023-04-25T13:37:58;74.10;;;10.13;;
2934;SDS011;2462;51.456;7.248;2023-04-25T13:40:24;61.77;;;7.37;;
2934;SDS011;2462;51.456;7.248;2023-04-25T13:42:51;43.37;;;8.73;;
2934;SDS011;2462;51.456;7.248;2023-04-25T13:45:17;58.03;;;8.90;;
2934;SDS011;2462;51.456;7.248;2023-04-25T13:47:42;48.60;;;6.80;;
2934;SDS011;2462;51.456;7.248;2023-04-25T13:50:08;44.90;;;5.83;;
2934;SDS011;2462;51.456;7.248;2023-04-25T13:52:34;46.27;;;6.97;;
2934;SDS011;2462;51.456;7.248;2023-04-25T13:55:00;61.47;;;8.77;;
2934;SDS011;2462;51.456;7.248;2023-04-25T13:57:28;42.20;;;6.20;;
2934;SDS011;2462;51.456;7.248;2023-04-25T13:59:53;40.00;;;6.30;;
2934;SDS011;2462;51.456;7.248;2023-04-25T14:02:19;48.03;;;6.10;;
2934;SDS011;2462;51.456;7.248;2023-04-25T14:04:44;38.70;;;6.47;;
2934;SDS011;2462;51.456;7.248;2023-04-25T14:07:10;28.17;;;5.07;;
2934;SDS011;2462;51.456;7.248;2023-04-25T14:09:36;32.53;;;5.63;;
2934;SDS011;2462;51.456;7.248;2023-04-25T14:12:02;31.17;;;5.00;;
2934;SDS011;2462;51.456;7.248;2023-04-25T14:14:27;24.70;;;4.43;;
2934;SDS011;2462;51.456;7.248;2023-04-25T14:16:53;33.17;;;5.00;;
2934;SDS011;2462;51.456;7.248;2023-04-25T14:19:19;34.53;;;5.43;;
2934;SDS011;2462;51.456;7.248;2023-04-25T14:21:45;24.07;;;4.43;;
2934;SDS011;2462;51.456;7.248;2023-04-25T14:24:11;24.10;;;4.87;;
2934;SDS011;2462;51.456;7.248;2023-04-25T14:26:38;25.93;;;4.97;;
2934;SDS011;2462;51.456;7.248;2023-04-25T14:29:06;28.83;;;4.40;;
2934;SDS011;2462;51.456;7.248;2023-04-25T14:31:33;26.90;;;5.27;;
2934;SDS011;2462;51.456;7.248;2023-04-25T14:33:59;22.07;;;4.67;;
2934;SDS011;2462;51.456;7.248;2023-04-25T14:36:25;18.67;;;4.50;;
2934;SDS011;2462;51.456;7.248;2023-04-25T14:38:51;17.20;;;3.10;;
2934;SDS011;2462;51.456;7.248;2023-04-25T14:41:17;13.30;;;3.33;;
2934;SDS011;2462;51.456;7.248;2023-04-25T14:43:42;19.80;;;3.73;;
2934;SDS011;2462;51.456;7.248;2023-04-25T14:46:09;17.37;;;4.77;;
2934;SDS011;2462;51.456;7.248;2023-04-25T14:48:35;16.53;;;4.50;;
2934;SDS011;2462;51.456;7.248;2023-04-25T14:51:01;20.63;;;3.57;;
2934;SDS011;2462;51.456;7.248;2023-04-25T14:53:27;20.17;;;4.10;;
2934;SDS011;2462;51.456;7.248;2023-04-25T14:55:53;16.57;;;3.30;;
2934;SDS011;2462;51.456;7.248;2023-04-25T14:58:19;17.80;;;2.83;;
2934;SDS011;2462;51.456;7.248;2023-04-25T15:00:45;11.93;;;2.70;;
2934;SDS011;2462;51.456;7.248;2023-04-25T15:03:11;15.83;;;3.80;;
2934;SDS011;2462;51.456;7.248;2023-04-25T15:05:38;9.20;;;2.90;;
2934;SDS011;2462;51.456;7.248;2023-04-25T15:08:04;14.70;;;3.67;;
2934;SDS011;2462;51.456;7.248;2023-04-25T15:10:29;14.77;;;3.10;;
2934;SDS011;2462;51.456;7.248;2023-04-25T15:12:55;15.13;;;3.07;;
2934;SDS011;2462;51.456;7.248;2023-04-25T15:15:21;18.53;;;3.20;;
2934;SDS011;2462;51.456;7.248;2023-04-25T15:17:48;9.30;;;2.90;;
2934;SDS011;2462;51.456;7.248;2023-04-25T15:20:13;14.80;;;2.50;;
2934;SDS011;2462;51.456;7.248;2023-04-25T15:22:40;13.33;;;2.90;;
2934;SDS011;2462;51.456;7.248;2023-04-25T15:25:07;17.50;;;3.27;;
2934;SDS011;2462;51.456;7.248;2023-04-25T15:27:34;9.70;;;2.30;;